createdAt,value
2017-05-28T00:00:37.043Z,11.14
2017-05-28T00:03:06.074Z,8.26
2017-05-28T00:05:35.158Z,7.38
2017-05-28T00:08:10.402Z,10.54
2017-05-28T00:13:40.835Z,9.12
2017-05-28T00:16:09.870Z,8.82
2017-05-28T00:18:38.895Z,8.16
2017-05-28T00:21:08.999Z,12.52
2017-05-28T00:23:38.024Z,10.18
2017-05-28T00:26:07.069Z,8.70
2017-05-28T00:28:36.137Z,9.92
2017-05-28T00:31:05.187Z,11.54
2017-05-28T00:33:34.270Z,8.50
2017-05-28T00:36:03.304Z,9.34
2017-05-28T00:38:32.324Z,10.18
2017-05-28T00:41:01.404Z,9.50
2017-05-28T00:43:30.423Z,11.40
2017-05-28T00:45:59.460Z,9.14
2017-05-28T00:51:12.988Z,14.46
2017-05-28T00:53:42.010Z,11.20
2017-05-28T00:56:11.064Z,11.40
2017-05-28T00:58:40.174Z,9.28
2017-05-28T01:01:09.206Z,9.16
2017-05-28T01:03:38.237Z,9.34
2017-05-28T01:09:08.137Z,10.34
2017-05-28T01:11:37.186Z,12.58
2017-05-28T01:14:06.208Z,9.74
2017-05-28T01:16:35.253Z,10.24
2017-05-28T01:19:04.286Z,8.64
2017-05-28T01:21:33.385Z,9.52
2017-05-28T01:24:02.432Z,9.68
2017-05-28T01:26:31.475Z,10.22
2017-05-28T01:31:34.638Z,8.60
2017-05-28T01:37:05.153Z,9.20
2017-05-28T01:39:34.157Z,10.76
2017-05-28T01:42:03.175Z,10.98
2017-05-28T01:44:32.242Z,11.56
2017-05-28T01:47:26.790Z,10.24
2017-05-28T01:50:08.401Z,9.72
2017-05-28T01:52:37.427Z,14.16
2017-05-28T01:55:06.446Z,16.50
2017-05-28T01:57:35.526Z,14.28
2017-05-28T02:06:06.015Z,10.80
2017-05-28T02:08:35.039Z,10.84
2017-05-28T02:17:05.835Z,10.28
2017-05-28T02:19:34.877Z,11.26
2017-05-28T02:22:03.984Z,10.80
2017-05-28T02:24:33.031Z,12.40
2017-05-28T02:27:02.059Z,9.72
2017-05-28T02:32:31.997Z,10.64
2017-05-28T02:35:01.026Z,10.44
2017-05-28T02:37:30.055Z,9.68
2017-05-28T02:40:13.675Z,10.82
2017-05-28T02:42:42.687Z,9.40
2017-05-28T02:45:11.757Z,12.40
2017-05-28T02:47:40.782Z,9.40
2017-05-28T02:50:09.838Z,10.94
2017-05-28T02:52:38.906Z,8.88
2017-05-28T02:58:08.985Z,9.58
2017-05-28T03:00:38.014Z,10.42
2017-05-28T03:03:07.051Z,9.18
2017-05-28T03:05:36.172Z,10.20
2017-05-28T03:11:05.957Z,12.16
2017-05-28T03:13:34.973Z,9.50
2017-05-28T03:16:04.032Z,10.48
2017-05-28T03:18:33.055Z,9.74
2017-05-28T03:21:08.527Z,10.34
2017-05-28T03:26:39.059Z,10.40
2017-05-28T03:29:08.072Z,10.38
2017-05-28T03:31:37.109Z,11.22
2017-05-28T03:34:06.177Z,9.48
2017-05-28T03:36:35.234Z,11.78
2017-05-28T03:39:10.351Z,12.38
2017-05-28T03:41:39.367Z,11.52
2017-05-28T03:44:08.393Z,9.52
2017-05-28T03:46:37.488Z,11.34
2017-05-28T03:49:06.574Z,9.74
2017-05-28T03:57:37.507Z,10.94
2017-05-28T04:00:06.601Z,14.00
2017-05-28T04:02:35.638Z,12.22
2017-05-28T04:05:04.753Z,12.30
2017-05-28T04:07:33.806Z,15.68
2017-05-28T04:10:02.843Z,12.10
2017-05-28T04:12:31.934Z,14.02
2017-05-28T04:15:00.978Z,11.60
2017-05-28T04:17:30.009Z,13.02
2017-05-28T04:20:09.525Z,13.80
2017-05-28T04:22:38.539Z,15.86
2017-05-28T04:25:07.575Z,14.86
2017-05-28T04:27:36.634Z,12.08
2017-05-28T04:30:05.708Z,13.84
2017-05-28T04:32:34.760Z,14.20
2017-05-28T04:38:05.138Z,12.30
2017-05-28T04:40:34.167Z,11.54
2017-05-28T04:43:03.182Z,10.76
2017-05-28T04:51:36.032Z,12.58
2017-05-28T04:54:05.794Z,13.12
2017-05-28T04:56:35.052Z,16.12
2017-05-28T04:59:04.122Z,10.86
2017-05-28T05:01:33.150Z,10.24
2017-05-28T05:04:02.251Z,12.34
2017-05-28T05:06:31.290Z,13.94
2017-05-28T05:09:00.310Z,13.22
2017-05-28T05:11:29.376Z,12.20
2017-05-28T05:13:58.414Z,16.00
2017-05-28T05:16:27.432Z,12.02
2017-05-28T05:18:56.507Z,11.34
2017-05-28T05:21:25.547Z,10.34
2017-05-28T05:23:54.600Z,11.64
2017-05-28T05:26:23.678Z,10.98
2017-05-28T05:31:53.880Z,11.46
2017-05-28T05:34:22.905Z,8.92
2017-05-28T05:36:51.914Z,9.00
2017-05-28T05:39:21.011Z,10.30
2017-05-28T05:41:50.048Z,12.64
2017-05-28T05:44:19.104Z,10.08
2017-05-28T05:46:48.170Z,10.42
2017-05-28T05:49:17.186Z,9.54
2017-05-28T05:51:46.235Z,8.66
2017-05-28T05:54:15.291Z,8.00
2017-05-28T05:56:44.367Z,7.76
2017-05-28T06:02:14.660Z,9.86
2017-05-28T06:04:43.695Z,7.40
2017-05-28T06:07:12.734Z,8.58
2017-05-28T06:12:42.719Z,7.12
2017-05-28T06:15:11.749Z,7.44
2017-05-28T06:17:40.827Z,8.16
2017-05-28T06:22:48.347Z,8.94
2017-05-28T06:28:19.010Z,9.60
2017-05-28T06:30:48.063Z,7.00
2017-05-28T06:33:17.110Z,8.50
2017-05-28T06:35:46.512Z,8.16
2017-05-28T06:38:15.585Z,10.20
2017-05-28T06:40:44.644Z,8.44
2017-05-28T06:43:13.728Z,7.38
2017-05-28T06:45:42.797Z,6.86
2017-05-28T06:48:11.884Z,7.12
2017-05-28T06:50:40.897Z,7.06
2017-05-28T06:56:10.970Z,6.26
2017-05-28T06:58:40.002Z,8.28
2017-05-28T07:01:09.019Z,6.76
2017-05-28T07:03:38.076Z,8.10
2017-05-28T07:09:08.146Z,6.68
2017-05-28T07:11:37.174Z,9.76
2017-05-28T07:14:06.195Z,7.90
2017-05-28T07:16:35.285Z,7.56
2017-05-28T07:19:05.258Z,6.90
2017-05-28T07:24:36.559Z,7.70
2017-05-28T07:30:06.426Z,5.30
2017-05-28T07:32:34.657Z,8.08
2017-05-28T07:35:08.895Z,7.10
2017-05-28T07:37:37.126Z,7.20
2017-05-28T07:40:08.470Z,6.66
2017-05-28T07:46:07.077Z,7.70
2017-05-28T07:52:04.929Z,7.22
2017-05-28T08:03:51.464Z,7.08
2017-05-28T08:06:19.701Z,7.46
2017-05-28T08:09:07.420Z,5.78
2017-05-28T08:11:43.514Z,6.04
2017-05-28T08:14:11.801Z,7.06
2017-05-28T08:16:40.032Z,7.96
2017-05-28T08:19:08.662Z,16.72
2017-05-28T08:25:07.117Z,8.38
2017-05-28T08:27:35.370Z,7.30
2017-05-28T08:30:03.621Z,5.62
2017-05-28T08:35:32.168Z,6.10
2017-05-28T08:38:00.783Z,5.62
2017-05-28T08:40:29.847Z,5.98
2017-05-28T08:42:58.224Z,6.70
2017-05-28T08:48:26.164Z,5.90
2017-05-28T08:50:54.419Z,7.46
2017-05-28T08:56:22.698Z,5.34
2017-05-28T09:02:08.420Z,5.08
2017-05-28T09:07:53.575Z,5.60
2017-05-28T09:10:21.791Z,7.98
2017-05-28T09:15:47.157Z,6.92
2017-05-28T09:18:15.439Z,4.80
2017-05-28T09:21:08.974Z,8.04
2017-05-28T09:24:07.480Z,7.62
2017-05-28T09:38:36.170Z,5.66
2017-05-28T09:41:10.541Z,10.70
2017-05-28T09:43:39.563Z,5.58
2017-05-28T09:46:07.845Z,6.92
2017-05-28T09:48:36.123Z,4.98
2017-05-28T09:51:04.363Z,7.96
2017-05-28T09:53:32.580Z,7.68
2017-05-28T09:56:00.842Z,5.72
2017-05-28T09:58:29.117Z,5.90
2017-05-28T10:00:57.356Z,7.56
2017-05-28T10:03:25.595Z,7.44
2017-05-28T10:05:53.868Z,6.80
2017-05-28T10:11:22.993Z,6.30
2017-05-28T10:13:51.217Z,4.82
2017-05-28T10:16:19.443Z,4.96
2017-05-28T10:18:47.709Z,4.20
2017-05-28T10:21:15.938Z,10.70
2017-05-28T10:23:44.180Z,5.28
2017-05-28T10:26:13.338Z,6.26
2017-05-28T10:28:41.557Z,5.50
2017-05-28T10:31:09.858Z,10.30
2017-05-28T10:33:38.097Z,5.28
2017-05-28T10:36:10.053Z,4.58
2017-05-28T10:38:38.306Z,6.38
2017-05-28T10:41:06.529Z,4.98
2017-05-28T10:43:34.811Z,6.32
2017-05-28T10:46:03.025Z,5.48
2017-05-28T10:51:31.363Z,5.68
2017-05-28T10:53:59.591Z,5.48
2017-05-28T10:56:27.854Z,5.74
2017-05-28T10:58:56.126Z,7.24
2017-05-28T11:01:24.391Z,5.62
2017-05-28T11:03:52.617Z,5.18
2017-05-28T11:06:20.898Z,5.84
2017-05-28T11:08:49.116Z,4.82
2017-05-28T11:11:17.342Z,4.66
2017-05-28T11:13:45.620Z,9.98
2017-05-28T11:16:13.853Z,4.22
2017-05-28T11:18:42.078Z,5.34
2017-05-28T11:21:10.335Z,6.22
2017-05-28T11:23:38.581Z,5.52
2017-05-28T11:26:06.845Z,5.46
2017-05-28T11:28:35.838Z,5.84
2017-05-28T11:31:10.158Z,4.94
2017-05-28T11:33:38.441Z,4.84
2017-05-28T11:36:06.689Z,6.04
2017-05-28T11:38:34.928Z,5.74
2017-05-28T11:41:03.242Z,4.52
2017-05-28T11:46:31.803Z,5.24
2017-05-28T11:49:09.835Z,6.38
2017-05-28T11:51:38.105Z,4.56
2017-05-28T11:54:06.347Z,5.18
2017-05-28T11:56:34.625Z,5.02
2017-05-28T11:59:08.614Z,4.66
2017-05-28T12:01:36.913Z,4.68
2017-05-28T12:04:05.151Z,4.76
2017-05-28T12:06:33.382Z,4.16
2017-05-28T12:09:01.695Z,4.80
2017-05-28T12:11:29.928Z,5.28
2017-05-28T12:13:58.165Z,4.76
2017-05-28T12:19:26.290Z,6.92
2017-05-28T12:21:54.513Z,5.40
2017-05-28T12:24:22.778Z,6.52
2017-05-28T12:27:10.483Z,6.98
2017-05-28T12:29:38.758Z,5.20
2017-05-28T12:32:06.979Z,4.12
2017-05-28T12:34:35.223Z,4.32
2017-05-28T12:37:03.493Z,6.80
2017-05-28T12:39:31.743Z,4.68
2017-05-28T12:41:59.971Z,4.32
2017-05-28T12:44:28.229Z,4.54
2017-05-28T12:46:56.454Z,4.34
2017-05-28T12:49:24.724Z,5.28
2017-05-28T12:51:53.020Z,4.28
2017-05-28T12:57:20.862Z,4.12
2017-05-28T12:59:49.086Z,4.12
2017-05-28T13:02:17.363Z,5.12
2017-05-28T13:04:45.647Z,4.36
2017-05-28T13:07:13.880Z,5.34
2017-05-28T13:09:42.125Z,4.40
2017-05-28T13:12:11.161Z,4.28
2017-05-28T13:14:39.389Z,8.44
2017-05-28T13:17:07.624Z,4.76
2017-05-28T13:19:35.876Z,6.58
2017-05-28T13:22:10.689Z,4.40
2017-05-28T13:24:38.913Z,5.16
2017-05-28T13:27:07.198Z,6.86
2017-05-28T13:29:35.431Z,5.76
2017-05-28T13:32:03.675Z,6.82
2017-05-28T13:34:31.943Z,6.10
2017-05-28T13:37:00.186Z,5.28
2017-05-28T13:39:28.436Z,7.72
2017-05-28T13:41:56.714Z,5.72
2017-05-28T13:44:24.938Z,5.52
2017-05-28T13:46:53.180Z,5.16
2017-05-28T13:52:21.526Z,5.12
2017-05-28T13:54:49.791Z,4.80
2017-05-28T13:57:18.031Z,5.04
2017-05-28T13:59:46.301Z,6.44
2017-05-28T14:02:14.530Z,5.52
2017-05-28T14:04:42.759Z,3.82
2017-05-28T14:10:10.476Z,4.48
2017-05-28T14:12:38.694Z,3.92
2017-05-28T14:15:06.955Z,10.44
2017-05-28T14:20:37.238Z,5.06
2017-05-28T14:23:05.528Z,4.02
2017-05-28T14:25:33.753Z,4.36
2017-05-28T14:28:01.978Z,8.40
2017-05-28T14:30:30.268Z,4.46
2017-05-28T14:32:58.486Z,4.78
2017-05-28T14:35:26.728Z,5.10
2017-05-28T14:37:55.000Z,4.70
2017-05-28T14:40:23.226Z,6.16
2017-05-28T14:42:51.448Z,4.64
2017-05-28T14:48:19.968Z,4.14
2017-05-28T14:50:48.190Z,6.98
2017-05-28T14:53:16.479Z,5.66
2017-05-28T14:56:08.001Z,6.66
2017-05-28T14:58:36.290Z,5.50
2017-05-28T15:01:11.061Z,6.30
2017-05-28T15:03:39.347Z,7.80
2017-05-28T15:06:07.580Z,4.70
2017-05-28T15:08:35.806Z,5.68
2017-05-28T15:11:04.084Z,5.14
2017-05-28T15:13:32.320Z,5.54
2017-05-28T15:16:00.593Z,4.60
2017-05-28T15:18:28.818Z,5.28
2017-05-28T15:20:57.059Z,3.98
2017-05-28T15:23:25.385Z,5.10
2017-05-28T15:25:53.632Z,4.14
2017-05-28T15:28:21.854Z,5.80
2017-05-28T15:30:50.133Z,5.82
2017-05-28T15:33:18.373Z,4.10
2017-05-28T15:35:46.621Z,6.44
2017-05-28T15:38:14.892Z,6.00
2017-05-28T15:40:43.912Z,4.68
2017-05-28T15:43:12.182Z,5.30
2017-05-28T15:45:40.414Z,4.24
2017-05-28T15:48:08.634Z,5.78
2017-05-28T15:50:36.928Z,5.04
2017-05-28T15:53:05.930Z,5.26
2017-05-28T15:55:34.148Z,4.54
2017-05-28T15:58:02.418Z,4.62
2017-05-28T16:00:30.666Z,4.82
2017-05-28T16:02:58.915Z,6.82
2017-05-28T16:05:27.224Z,7.16
2017-05-28T16:07:55.449Z,4.70
2017-05-28T16:10:23.670Z,5.06
2017-05-28T16:12:51.976Z,4.84
2017-05-28T16:15:20.201Z,5.32
2017-05-28T16:17:48.434Z,5.42
2017-05-28T16:20:16.718Z,4.70
2017-05-28T16:23:07.952Z,5.80
2017-05-28T16:25:36.227Z,4.44
2017-05-28T16:28:10.813Z,5.12
2017-05-28T16:30:39.100Z,4.26
2017-05-28T16:36:06.980Z,5.46
2017-05-28T16:38:35.224Z,6.00
2017-05-28T16:41:03.449Z,4.88
2017-05-28T16:43:31.718Z,9.28
2017-05-28T16:45:59.958Z,5.10
2017-05-28T16:48:28.187Z,4.32
2017-05-28T16:50:56.458Z,3.88
2017-05-28T16:53:24.695Z,5.34
2017-05-28T16:56:06.063Z,5.56
2017-05-28T16:58:34.280Z,5.34
2017-05-28T17:01:02.544Z,5.30
2017-05-28T17:03:30.792Z,5.62
2017-05-28T17:06:08.854Z,6.06
2017-05-28T17:08:37.104Z,5.42
2017-05-28T17:11:05.344Z,5.30
2017-05-28T17:13:33.607Z,5.96
2017-05-28T17:16:01.830Z,5.22
2017-05-28T17:18:30.058Z,4.70
2017-05-28T17:20:59.549Z,6.68
2017-05-28T17:23:28.551Z,5.72
2017-05-28T17:26:09.510Z,5.06
2017-05-28T17:28:37.793Z,7.06
2017-05-28T17:31:06.021Z,4.88
2017-05-28T17:33:40.845Z,8.46
2017-05-28T17:36:09.078Z,5.10
2017-05-28T17:38:43.997Z,4.98
2017-05-28T17:41:12.290Z,6.72
2017-05-28T17:43:40.521Z,4.68
2017-05-28T17:46:09.047Z,8.34
2017-05-28T17:48:58.027Z,6.60
2017-05-28T17:51:26.278Z,5.10
2017-05-28T17:53:54.512Z,6.12
2017-05-28T17:56:23.559Z,5.40
2017-05-28T17:58:51.776Z,6.28
2017-05-28T18:01:20.002Z,5.40
2017-05-28T18:03:48.270Z,4.20
2017-05-28T18:06:16.509Z,6.96
2017-05-28T18:08:44.741Z,5.64
2017-05-28T18:11:12.993Z,4.20
2017-05-28T18:13:41.225Z,6.64
2017-05-28T18:19:10.354Z,5.66
2017-05-28T18:21:38.592Z,5.08
2017-05-28T18:24:06.818Z,6.00
2017-05-28T18:26:35.097Z,7.56
2017-05-28T18:29:09.574Z,5.32
2017-05-28T18:31:37.887Z,5.96
2017-05-28T18:34:09.249Z,6.24
2017-05-28T18:36:37.545Z,5.58
2017-05-28T18:39:05.766Z,7.14
2017-05-28T18:41:33.998Z,4.98
2017-05-28T18:44:09.042Z,7.22
2017-05-28T18:46:37.260Z,6.06
2017-05-28T18:49:05.549Z,5.50
2017-05-28T18:51:33.784Z,6.30
2017-05-28T18:54:02.010Z,7.34
2017-05-28T18:56:31.514Z,5.50
2017-05-28T18:59:09.303Z,4.98
2017-05-28T19:01:37.606Z,7.44
2017-05-28T19:04:05.851Z,5.32
2017-05-28T19:06:34.081Z,4.80
2017-05-28T19:09:09.322Z,7.38
2017-05-28T19:14:37.692Z,4.08
2017-05-28T19:17:09.222Z,5.64
2017-05-28T19:22:37.494Z,6.44
2017-05-28T19:25:05.740Z,7.98
2017-05-28T19:27:33.980Z,4.84
2017-05-28T19:30:02.261Z,6.64
2017-05-28T19:32:30.517Z,8.98
2017-05-28T19:35:11.282Z,7.00
2017-05-28T19:37:39.505Z,4.88
2017-05-28T19:40:07.830Z,5.42
2017-05-28T19:42:36.110Z,5.18
2017-05-28T19:45:10.243Z,6.06
2017-05-28T19:47:39.298Z,5.32
2017-05-28T19:50:10.898Z,5.98
2017-05-28T19:52:40.728Z,6.18
2017-05-28T19:58:09.632Z,5.72
2017-05-28T20:00:37.997Z,5.06
2017-05-28T20:03:06.240Z,5.78
2017-05-28T20:05:34.519Z,9.08
2017-05-28T20:11:02.780Z,6.82
2017-05-28T20:13:31.018Z,6.62
2017-05-28T20:15:59.246Z,9.90
2017-05-28T20:18:27.536Z,7.54
2017-05-28T20:21:08.686Z,6.76
2017-05-28T20:26:36.418Z,6.02
2017-05-28T20:29:10.582Z,5.82
2017-05-28T20:31:38.859Z,8.02
2017-05-28T20:34:07.111Z,6.70
2017-05-28T20:36:35.337Z,6.30
2017-05-28T20:39:03.620Z,8.12
2017-05-28T20:44:32.162Z,6.46
2017-05-28T20:47:00.388Z,9.44
2017-05-28T20:49:28.633Z,8.66
2017-05-28T20:51:56.973Z,8.82
2017-05-28T20:57:25.446Z,7.30
2017-05-28T20:59:53.674Z,6.68
2017-05-28T21:02:21.921Z,7.66
2017-05-28T21:10:49.926Z,6.60
2017-05-28T21:13:18.183Z,5.74
2017-05-28T21:15:46.416Z,5.32
2017-05-28T21:18:14.714Z,6.48
2017-05-28T21:20:42.943Z,5.42
2017-05-28T21:23:11.185Z,6.30
2017-05-28T21:25:39.548Z,5.90
2017-05-28T21:28:07.771Z,6.38
2017-05-28T21:30:36.013Z,5.12
2017-05-28T21:36:04.650Z,5.96
2017-05-28T21:38:32.889Z,6.28
2017-05-28T21:41:01.118Z,6.72
2017-05-28T21:43:29.503Z,8.72
2017-05-28T21:45:57.719Z,5.84
2017-05-28T21:48:25.943Z,5.56
2017-05-28T21:53:54.169Z,6.00
2017-05-28T21:56:22.394Z,7.02
2017-05-28T21:58:50.618Z,6.30
2017-05-28T22:01:19.006Z,5.56
2017-05-28T22:03:47.228Z,5.50
2017-05-28T22:06:15.453Z,7.32
2017-05-28T22:08:43.735Z,5.50
2017-05-28T22:11:11.958Z,5.00
2017-05-28T22:13:40.954Z,7.02
2017-05-28T22:16:09.218Z,5.66
2017-05-28T22:18:37.475Z,8.00
2017-05-28T22:21:05.710Z,7.50
2017-05-28T22:26:33.923Z,5.80
2017-05-28T22:29:09.934Z,6.74
2017-05-28T22:34:15.835Z,5.72
2017-05-28T22:36:44.101Z,5.90
2017-05-28T22:39:12.325Z,4.72
2017-05-28T22:41:40.552Z,5.22
2017-05-28T22:44:08.818Z,6.52
2017-05-28T22:46:37.050Z,5.12
2017-05-28T22:49:05.280Z,6.74
2017-05-28T22:51:33.559Z,5.24
2017-05-28T22:54:01.781Z,4.50
2017-05-28T22:59:30.011Z,5.44
2017-05-28T23:01:58.247Z,4.90
2017-05-28T23:04:26.473Z,5.18
2017-05-28T23:06:54.737Z,5.28
2017-05-28T23:09:22.957Z,5.80
2017-05-28T23:12:10.888Z,5.60
2017-05-28T23:15:08.713Z,5.38
2017-05-28T23:17:36.981Z,6.24
2017-05-28T23:20:11.145Z,7.16
2017-05-28T23:22:39.581Z,5.14
2017-05-28T23:25:10.729Z,5.66
2017-05-28T23:28:08.828Z,6.10
2017-05-28T23:30:37.064Z,6.36
2017-05-28T23:33:08.847Z,5.80
2017-05-28T23:35:37.093Z,6.14
2017-05-28T23:38:05.319Z,5.36
2017-05-28T23:40:33.595Z,5.24
2017-05-28T23:43:09.187Z,4.86
2017-05-28T23:45:37.458Z,6.06
2017-05-28T23:48:05.677Z,6.98
2017-05-28T23:50:33.905Z,4.88
2017-05-28T23:53:09.428Z,5.62
2017-05-28T23:55:37.675Z,5.36
2017-05-28T23:58:05.917Z,5.30
